Huvudsida
METAR-TAF:

METAR-TAF

Flygplatser :

Utti Airport

Uttis, Finland

latitud: 60-54N, longitud: 026-56E, höjd: 100 m

Aktuellt väderrapport

Denna rapport gjordes för 17 minuter sedan, klockan 05:50 UTC
Vind 10 kt från syd/sydväst, varierande mellan syd/sydost och sydväst
Temperatur 7°C
Fuktighet 100%
Tryck 1032 hPa
Sikt: 5000 m
Mulet på en höjd av 200 ft
lätt duggregn

METAR: EFUT 160550Z 20010KT 160V230 5000 -DZ OVC002 07/07 Q1032

Tid: 08:07 (06:07 UTC)

Väderprognos

Denna rapport gjordes för 31 minuter sedan, klockan 05:36 UTC
Prognos gäller från 16 kl. 06 UTC till 16 kl. 13 UTC
Vind 10 kt från syd/sydväst
Sikt 10 km eller mer
Mulet på en höjd av 500 ft
Temporärt
från 16 kl. 06 UTC till 16 kl. 10 UTC
Sikt: 3000 m
Mulet på en höjd av 300 ft
lätt duggregn
Blir
från 16 kl. 10 UTC till 16 kl. 12 UTC
Spridda moln på en höjd av 700 ft
Brutna moln på en höjd av 1500 ft

TAF: EFUT 160536Z 1606/1613 21010KT 9999 OVC005 TEMPO 1606/1610 3000 -DZ OVC003 BECMG 1610/1612 SCT007 BKN015

Aktuella väderrapporter och prognoser från 4000 flygplatser (METAR- och TAF-rapporter).

De tillgängliga stationerna syns som gula och röda prickar på kartan.

För musen över prickarna för att se namnen på stationerna.

Klicka sedan för att få väderrapporter och prognoser.

För att ändra kartan: Klicka på de gröna knapparna med ett svart kors på för att zooma in; den gröna knappen med ett streck på för att zooma ut; eller på de gröna pilarna för angränsande kartor.


METAR-TAF: